Aktualne dane pomiarowe

Uwaga, wersja testowa! Automatyczne pobieranie danych za pomocą narzędzi lub skryptów to umożliwiających jest zabronione.

Dane meteo z obszaru Polski uzyskane na podstawie depesz SYNOP pobieranych co godzinę z NWS. Najedź myszką na symbol przedstawiony w tabeli, aby uzyskać informacje co do jego znaczenia. Prosimy pamiętać, że to testowa wersja strony, która jeszcze nie jest ukończona. Stworzono również jest krótki FAQ dotyczący korzystania z tej podstrony Anomalie temperatury w chwili obecnej odniesione są do okresu referencyjnego 1951-2016. Okres ten będzie później zmieniony na 1981-2010. Kliknij ikonę aby pobrać plik CSV. Kliknij ikonę aby wygenerować mapę synoptyczną dla danego terminu.

Wybierz Datę:    

        

Szczecinek (12215)

Dane terminowe dla wybranej stacji. Kliknij datę, aby otrzymać dane z tego terminu dla wszystkich stacji.

TemperaturaZachmurzenieWiatrCiśnienieOpadyPogoda
 Data t td wb tx tn tg rh  Nt Nl Cl Cm Ch ws wd g1 g2 wx mslp ppp ch 24h 12h t ww ww w1 w2  
2019-07-12 23:00:00 14.6 12.2 13.0--- 86---4wx---1009.9 993.4 0.2---------
2019-07-12 22:00:00 14.4 11.8 12.6--- 84---2wx---1009.8 993.3 0.5---------
2019-07-12 21:00:00 14.1 11.2 12.2--- 83---1----1010.1 993.5 1.0---------
2019-07-12 20:00:00 17.4 11.9 13.9--- 70---2----1009.6 993.2 0.9---------
2019-07-12 19:00:00 18.8 12.2 14.6--- 66---2----1009.1 992.8 0.4---------
2019-07-12 18:00:00 20.2 11.2 14.7 26.0 7.3- 56---3----1008.7 992.5 0.3- 0.012------
2019-07-12 17:00:00 21.8 11.5 15.5--- 52---4----1008.4 992.3 0.0---------
2019-07-12 16:00:00 22.8 11.3 15.9--- 48---4wx---1008.4 992.3 -0.3---------
2019-07-12 15:00:00 24.8 4.3 13.8--- 27---1----1008.1 992.2 -0.8---------
2019-07-12 14:00:00 25.5 5.1 14.4--- 27---1----1008.2 992.3 -1.1---------
2019-07-12 13:00:00 24.7 4.6 13.8--- 27---1----1008.6 992.6 -1.0---------
2019-07-12 12:00:00 24.0 4.6 13.6--- 28---2----1009.0 993.0 -0.7- 0.06------
2019-07-12 11:00:00 23.2 6.1 13.8--- 33---2----1009.4 993.4 -0.5---------
2019-07-12 10:00:00 22.2 8.4 14.3--- 41---1----1009.7 993.6 -0.4---------
2019-07-12 09:00:00 21.9 8.4 14.2--- 42---0----1009.8 993.7 -0.3---------
2019-07-12 08:00:00 20.5 9.2 13.9--- 48---1----1010.1 993.9 0.0---------
2019-07-12 07:00:00 18.4 10.6 13.6--- 60---1----1010.3 994.0 0.0---------
2019-07-12 06:00:00 15.5 13.8 14.3 22.4 7.3 6 90---1----1010.5 994.0 0.0 0.0 0.012----- 0.0
2019-07-12 05:00:00 12.4 11.8 11.9--- 96---0----1010.7 994.0 -0.2---------
2019-07-12 04:00:00 9.0 8.4 8.5--- 96---0----1010.8 993.9 -0.5---------
2019-07-12 03:00:00 7.4 6.7 6.9--- 95---0----1011.0 994.0 -0.6---------
2019-07-12 02:00:00 7.9 7.2 7.4--- 95---0----1011.1 994.2 -0.7---------
2019-07-12 01:00:00 7.7 6.9 7.1--- 95---0----1011.4 994.5 -0.7---------
2019-07-12 00:00:00 8.9 8.1 8.3--- 95---0----1011.5 994.6 -0.5- 0.06------
2019-07-11 23:00:00 8.6 7.6 7.9--- 93---1wx---1011.8 994.9 -0.2---------
2019-07-11 22:00:00 9.8 8.7 9.0--- 93---1----1011.9 995.1 0.2---------
2019-07-11 21:00:00 10.7 9.1 9.6--- 90---1----1011.9 995.1 0.3---------
2019-07-11 20:00:00 12.9 10.1 11.0--- 83---1wx---1011.8 995.1 0.4---------
2019-07-11 19:00:00 18.0 11.4 13.9--- 65---1wx---1011.3 994.9 0.2---------
2019-07-11 18:00:00 20.2 11.3 14.7 22.4 7.3- 57---2----1011.0 994.8 0.0- 0.012------
2019-07-11 17:00:00 21.2 10.3 14.7--- 50---2----1010.9 994.7 0.0---------
2019-07-11 16:00:00 21.1 10.6 14.8--- 51---3----1011.0 994.8 -0.4---------
2019-07-11 15:00:00 21.0 10.9 14.9--- 52---4----1011.0 994.8 -0.6---------
2019-07-11 14:00:00 22.1 8.8 14.4--- 43---2----1010.9 994.8 -0.9---------
2019-07-11 13:00:00 22.3 8.7 14.5--- 42---2----1011.3 995.2 -0.7---------
2019-07-11 12:00:00 21.1 8.8 14.0--- 45---2----1011.6 995.4 -0.5- 0.06------
2019-07-11 11:00:00 20.7 9.7 14.2--- 49---2----1011.9 995.7 -0.3---------
2019-07-11 10:00:00 20.2 10.6 14.4--- 54---4----1012.2 995.9 -0.2---------
2019-07-11 09:00:00 20.2 11.7 14.9--- 58---2----1012.2 995.9 0.0---------
2019-07-11 08:00:00 17.9 13.3 14.9--- 75---1----1012.4 996.0 0.2---------
1.4 ms

 

Print Friendly, PDF & Email